createdAt,value
2023-04-08T00:00:48.267Z,15.50
2023-04-08T00:03:38.234Z,17.45
2023-04-08T00:06:27.342Z,15.75
2023-04-08T00:09:15.851Z,15.20
2023-04-08T00:12:04.327Z,16.23
2023-04-08T00:14:52.758Z,12.32
2023-04-08T00:17:41.642Z,15.88
2023-04-08T00:20:31.532Z,12.95
2023-04-08T00:23:21.370Z,11.70
2023-04-08T00:26:09.807Z,11.85
2023-04-08T00:28:58.259Z,13.68
2023-04-08T00:31:46.636Z,10.00
2023-04-08T00:34:35.092Z,10.00
2023-04-08T00:37:25.794Z,10.83
2023-04-08T00:40:14.199Z,12.88
2023-04-08T00:43:02.702Z,11.52
2023-04-08T00:45:51.386Z,10.55
2023-04-08T00:48:39.923Z,10.93
2023-04-08T00:51:28.400Z,12.35
2023-04-08T00:54:18.167Z,10.98
2023-04-08T00:57:07.301Z,10.68
2023-04-08T00:59:55.875Z,9.32
2023-04-08T01:02:49.109Z,9.77
2023-04-08T01:05:47.092Z,10.57
2023-04-08T01:08:37.815Z,10.00
2023-04-08T01:11:30.520Z,7.65
2023-04-08T01:14:22.665Z,9.32
2023-04-08T01:17:11.833Z,9.43
2023-04-08T01:20:01.996Z,9.20
2023-04-08T01:23:22.024Z,7.68
2023-04-08T01:26:13.284Z,9.18
2023-04-08T01:29:04.323Z,8.32
2023-04-08T01:31:54.439Z,7.97
2023-04-08T01:34:44.175Z,7.13
2023-04-08T01:37:34.105Z,7.18
2023-04-08T01:40:22.682Z,9.00
2023-04-08T01:43:15.647Z,8.50
2023-04-08T01:46:04.202Z,7.32
2023-04-08T01:48:53.551Z,7.40
2023-04-08T01:51:42.765Z,8.13
2023-04-08T01:54:31.304Z,9.30
2023-04-08T01:57:25.579Z,7.47
2023-04-08T02:00:16.898Z,6.95
2023-04-08T02:03:08.045Z,8.02
2023-04-08T02:05:56.651Z,7.15
2023-04-08T02:08:46.042Z,7.78
2023-04-08T02:11:34.451Z,7.60
2023-04-08T02:14:23.011Z,6.15
2023-04-08T02:17:15.751Z,6.90
2023-04-08T02:20:08.657Z,6.82
2023-04-08T02:23:03.438Z,6.47
2023-04-08T02:25:54.171Z,9.25
2023-04-08T02:28:43.309Z,9.23
2023-04-08T02:31:32.269Z,8.43
2023-04-08T02:34:23.447Z,9.95
2023-04-08T02:37:12.111Z,8.82
2023-04-08T02:40:00.956Z,10.00
2023-04-08T02:42:49.443Z,9.77
2023-04-08T02:45:42.766Z,11.13
2023-04-08T02:48:31.393Z,11.20
2023-04-08T02:51:21.571Z,11.60
2023-04-08T02:54:09.984Z,12.38
2023-04-08T02:56:58.439Z,13.48
2023-04-08T02:59:46.878Z,14.00
2023-04-08T03:02:35.723Z,14.70
2023-04-08T03:05:24.360Z,14.38
2023-04-08T03:08:14.178Z,11.93
2023-04-08T03:11:02.948Z,14.02
2023-04-08T03:13:51.473Z,13.38
2023-04-08T03:16:39.888Z,13.13
2023-04-08T03:19:28.344Z,13.03
2023-04-08T03:22:16.804Z,14.07
2023-04-08T03:25:07.590Z,14.82
2023-04-08T03:27:56.124Z,13.65
2023-04-08T03:30:44.790Z,13.23
2023-04-08T03:33:33.662Z,14.10
2023-04-08T03:36:22.135Z,14.00
2023-04-08T03:39:10.976Z,13.02
2023-04-08T03:42:01.225Z,12.83
2023-04-08T03:44:49.645Z,13.80
2023-04-08T03:47:38.076Z,14.00
2023-04-08T03:50:26.512Z,12.25
2023-04-08T03:53:15.160Z,10.77
2023-04-08T03:56:04.576Z,11.65
2023-04-08T03:58:54.444Z,13.95
2023-04-08T04:01:42.879Z,13.82
2023-04-08T04:04:31.343Z,12.40
2023-04-08T04:07:19.828Z,12.10
2023-04-08T04:10:10.410Z,14.18
2023-04-08T04:12:58.884Z,11.17
2023-04-08T04:15:48.684Z,13.55
2023-04-08T04:18:37.153Z,11.80
2023-04-08T04:21:25.603Z,9.90
2023-04-08T04:24:14.578Z,10.18
2023-04-08T04:27:03.210Z,9.45
2023-04-08T04:29:51.637Z,8.95
2023-04-08T04:32:41.601Z,11.27
2023-04-08T04:35:30.088Z,9.40
2023-04-08T04:38:18.537Z,10.30
2023-04-08T04:41:07.079Z,9.13
2023-04-08T04:43:55.496Z,9.20
2023-04-08T04:46:44.003Z,9.18
2023-04-08T04:49:33.804Z,10.95
2023-04-08T04:52:22.287Z,10.90
2023-04-08T04:55:11.798Z,8.87
2023-04-08T04:58:00.298Z,10.15
2023-04-08T05:00:48.695Z,9.75
2023-04-08T05:03:37.164Z,10.27
2023-04-08T05:06:27.639Z,10.77
2023-04-08T05:09:16.098Z,12.57
2023-04-08T05:12:04.638Z,10.90
2023-04-08T05:14:53.047Z,11.82
2023-04-08T05:17:41.521Z,12.32
2023-04-08T05:20:30.292Z,12.33
2023-04-08T05:23:20.387Z,12.35
2023-04-08T05:26:09.751Z,12.07
2023-04-08T05:28:58.473Z,12.50
2023-04-08T05:31:47.035Z,10.00
2023-04-08T05:34:35.638Z,10.40
2023-04-08T05:37:24.093Z,11.43
2023-04-08T05:40:14.243Z,9.85
2023-04-08T05:43:02.682Z,12.63
2023-04-08T05:45:51.285Z,10.48
2023-04-08T05:48:39.703Z,12.55
2023-04-08T05:51:28.219Z,10.77
2023-04-08T05:54:16.695Z,12.23
2023-04-08T05:57:08.106Z,12.18
2023-04-08T05:59:57.632Z,12.80
2023-04-08T06:02:46.276Z,13.85
2023-04-08T06:05:34.932Z,12.45
2023-04-08T06:08:23.705Z,13.80
2023-04-08T06:11:12.238Z,13.57
2023-04-08T06:14:02.055Z,14.03
2023-04-08T06:16:50.555Z,14.23
2023-04-08T06:19:39.069Z,13.30
2023-04-08T06:22:27.563Z,16.98
2023-04-08T06:25:16.042Z,14.77
2023-04-08T06:28:04.524Z,14.55
2023-04-08T06:30:54.286Z,15.60
2023-04-08T06:33:42.846Z,15.00
2023-04-08T06:36:31.633Z,17.70
2023-04-08T06:39:21.627Z,13.82
2023-04-08T06:42:10.106Z,19.33
2023-04-08T06:44:58.679Z,16.80
2023-04-08T06:47:48.517Z,14.77
2023-04-08T06:50:37.135Z,17.77
2023-04-08T06:53:25.764Z,16.53
2023-04-08T06:56:14.179Z,14.07
2023-04-08T06:59:03.169Z,16.02
2023-04-08T07:01:51.788Z,15.82
2023-04-08T07:04:41.787Z,14.98
2023-04-08T07:07:30.292Z,16.53
2023-04-08T07:10:18.815Z,18.75
2023-04-08T07:13:07.339Z,17.65
2023-04-08T07:15:55.746Z,19.95
2023-04-08T07:18:44.244Z,15.90
2023-04-08T07:21:34.070Z,20.20
2023-04-08T07:24:22.498Z,21.10
2023-04-08T07:27:11.030Z,21.38
2023-04-08T07:29:59.557Z,23.03
2023-04-08T07:32:48.097Z,24.52
2023-04-08T07:35:36.626Z,21.20
2023-04-08T07:38:26.571Z,19.90
2023-04-08T07:41:15.025Z,30.83
2023-04-08T07:44:03.466Z,23.20
2023-04-08T07:46:52.010Z,29.13
2023-04-08T07:49:40.614Z,29.33
2023-04-08T07:52:29.086Z,28.73
2023-04-08T07:55:19.015Z,30.33
2023-04-08T07:58:07.575Z,29.35
2023-04-08T08:00:57.342Z,28.58
2023-04-08T08:03:46.187Z,28.52
2023-04-08T08:06:34.753Z,27.05
2023-04-08T08:09:23.215Z,25.95
2023-04-08T08:12:13.082Z,25.67
2023-04-08T08:15:01.525Z,26.75
2023-04-08T08:17:49.978Z,23.48
2023-04-08T08:20:38.452Z,23.05
2023-04-08T08:23:27.219Z,21.90
2023-04-08T08:26:15.894Z,19.73
2023-04-08T08:29:06.507Z,21.52
2023-04-08T08:31:54.901Z,20.35
2023-04-08T08:34:43.293Z,29.60
2023-04-08T08:37:31.712Z,23.83
2023-04-08T08:40:20.514Z,29.75
2023-04-08T08:43:08.971Z,28.05
2023-04-08T08:45:59.464Z,21.10
2023-04-08T08:48:48.064Z,22.07
2023-04-08T08:51:37.152Z,21.17
2023-04-08T08:54:26.208Z,23.88
2023-04-08T08:57:23.649Z,20.80
2023-04-08T09:00:16.070Z,18.38
2023-04-08T09:03:22.985Z,20.15
2023-04-08T09:06:12.751Z,23.98
2023-04-08T09:09:02.790Z,22.45
2023-04-08T09:11:51.364Z,18.85
2023-04-08T09:14:39.894Z,21.08
2023-04-08T09:17:35.377Z,24.37
2023-04-08T09:20:25.375Z,23.73
2023-04-08T09:23:13.866Z,24.83
2023-04-08T09:26:09.323Z,17.27
2023-04-08T09:29:08.453Z,22.02
2023-04-08T09:32:03.622Z,28.00
2023-04-08T09:34:52.244Z,22.02
2023-04-08T09:37:42.332Z,22.25
2023-04-08T09:40:35.022Z,20.38
2023-04-08T09:43:26.386Z,18.20
2023-04-08T09:46:15.249Z,16.20
2023-04-08T09:49:07.475Z,23.98
2023-04-08T09:52:05.335Z,19.83
2023-04-08T09:55:03.169Z,21.20
2023-04-08T09:57:56.740Z,22.33
2023-04-08T10:00:50.738Z,27.27
2023-04-08T10:03:46.795Z,22.27
2023-04-08T10:06:37.075Z,17.27
2023-04-08T10:09:25.844Z,18.77
2023-04-08T10:12:16.194Z,12.93
2023-04-08T10:15:28.901Z,13.63
2023-04-08T10:18:38.386Z,17.13
2023-04-08T10:21:43.734Z,14.00
2023-04-08T10:24:32.182Z,16.48
2023-04-08T10:27:41.294Z,19.53
2023-04-08T10:30:43.233Z,17.88
2023-04-08T10:33:37.257Z,16.70
2023-04-08T10:36:28.108Z,18.83
2023-04-08T10:39:17.441Z,18.20
2023-04-08T10:42:09.446Z,16.10
2023-04-08T10:45:03.403Z,16.35
2023-04-08T10:47:52.197Z,19.75
2023-04-08T10:50:41.286Z,13.70
2023-04-08T10:53:30.771Z,16.55
2023-04-08T10:56:19.658Z,14.05
2023-04-08T10:59:08.143Z,15.95
2023-04-08T11:01:58.597Z,12.98
2023-04-08T11:04:48.365Z,14.20
2023-04-08T11:07:42.094Z,16.33
2023-04-08T11:10:32.037Z,17.05
2023-04-08T11:13:20.782Z,16.15
2023-04-08T11:16:17.725Z,14.80
2023-04-08T11:19:08.973Z,15.00
2023-04-08T11:21:57.567Z,19.10
2023-04-08T11:24:46.258Z,14.77
2023-04-08T11:27:35.882Z,15.90
2023-04-08T11:30:25.189Z,12.30
2023-04-08T11:33:15.118Z,11.40
2023-04-08T11:36:05.629Z,14.57
2023-04-08T11:38:55.541Z,14.85
2023-04-08T11:41:44.545Z,13.90
2023-04-08T11:44:33.793Z,13.30
2023-04-08T11:47:22.319Z,11.90
2023-04-08T11:50:11.438Z,13.73
2023-04-08T11:53:01.259Z,11.27
2023-04-08T11:55:50.355Z,9.73
2023-04-08T11:58:38.805Z,12.47
2023-04-08T12:01:28.441Z,9.47
2023-04-08T12:04:16.968Z,14.98
2023-04-08T12:07:05.534Z,8.43
2023-04-08T12:09:55.610Z,13.80
2023-04-08T12:12:44.029Z,7.93
2023-04-08T12:15:32.842Z,23.25
2023-04-08T12:18:21.401Z,14.00
2023-04-08T12:21:09.865Z,11.30
2023-04-08T12:23:58.316Z,10.90
2023-04-08T12:26:48.104Z,11.10
2023-04-08T12:29:36.561Z,11.90
2023-04-08T12:32:25.614Z,9.68
2023-04-08T12:35:15.031Z,10.57
2023-04-08T12:38:03.611Z,8.00
2023-04-08T12:40:52.144Z,12.18
2023-04-08T12:43:42.048Z,8.95
2023-04-08T12:46:30.651Z,14.20
2023-04-08T12:49:19.111Z,6.80
2023-04-08T12:52:07.572Z,9.70
2023-04-08T12:54:56.104Z,11.15
2023-04-08T12:57:44.572Z,9.55
2023-04-08T13:00:34.507Z,13.85
2023-04-08T13:03:23.036Z,15.53
2023-04-08T13:06:12.091Z,10.55
2023-04-08T13:09:00.790Z,10.73
2023-04-08T13:11:49.545Z,14.00
2023-04-08T13:14:38.337Z,8.65
2023-04-08T13:17:28.352Z,12.48
2023-04-08T13:20:16.938Z,13.75
2023-04-08T13:23:05.795Z,14.10
2023-04-08T13:25:54.325Z,9.93
2023-04-08T13:28:55.973Z,12.55
2023-04-08T13:31:46.115Z,12.03
2023-04-08T13:34:36.061Z,11.88
2023-04-08T13:37:24.573Z,12.65
2023-04-08T13:40:13.371Z,10.17
2023-04-08T13:43:02.268Z,8.88
2023-04-08T13:45:50.698Z,13.77
2023-04-08T13:48:39.220Z,14.60
2023-04-08T13:51:29.067Z,9.52
2023-04-08T13:54:17.516Z,7.05
2023-04-08T13:57:06.180Z,12.77
2023-04-08T13:59:54.879Z,11.90
2023-04-08T14:02:43.544Z,8.10
2023-04-08T14:05:32.139Z,7.47
2023-04-08T14:08:25.533Z,9.23
2023-04-08T14:11:14.321Z,13.57
2023-04-08T14:14:02.812Z,9.90
2023-04-08T14:16:51.328Z,8.20
2023-04-08T14:19:39.885Z,8.07
2023-04-08T14:22:28.313Z,12.98
2023-04-08T14:25:18.317Z,10.68
2023-04-08T14:28:07.349Z,11.30
2023-04-08T14:30:56.145Z,14.60
2023-04-08T14:33:44.995Z,8.98
2023-04-08T14:36:33.822Z,12.48
2023-04-08T14:39:22.784Z,10.65
2023-04-08T14:42:12.662Z,11.90
2023-04-08T14:45:01.526Z,9.80
2023-04-08T14:47:50.069Z,10.52
2023-04-08T14:50:38.598Z,12.07
2023-04-08T14:53:27.287Z,12.50
2023-04-08T14:56:15.725Z,14.18
2023-04-08T14:59:06.008Z,9.23
2023-04-08T15:01:54.490Z,23.73
2023-04-08T15:04:42.967Z,13.52
2023-04-08T15:07:31.987Z,14.95
2023-04-08T15:10:20.577Z,13.07
2023-04-08T15:13:09.172Z,14.75
2023-04-08T15:15:59.114Z,12.88
2023-04-08T15:18:47.872Z,13.18
2023-04-08T15:21:36.283Z,10.38
2023-04-08T15:24:24.774Z,12.70
2023-04-08T15:27:13.173Z,10.85
2023-04-08T15:30:02.217Z,11.43
2023-04-08T15:32:52.654Z,8.77
2023-04-08T15:35:41.189Z,10.95
2023-04-08T15:38:29.744Z,12.07
2023-04-08T15:41:19.220Z,11.15
2023-04-08T15:44:07.701Z,11.15
2023-04-08T15:46:56.630Z,10.85
2023-04-08T15:49:46.892Z,9.10
2023-04-08T15:52:35.587Z,9.33
2023-04-08T15:55:24.075Z,10.05
2023-04-08T15:58:12.502Z,8.65
2023-04-08T16:01:01.267Z,7.90
2023-04-08T16:03:49.837Z,6.40
2023-04-08T16:06:39.721Z,5.28
2023-04-08T16:09:28.163Z,4.95
2023-04-08T16:12:16.566Z,4.87
2023-04-08T16:15:05.577Z,7.47
2023-04-08T16:17:54.164Z,4.18
2023-04-08T16:20:42.765Z,7.03
2023-04-08T16:23:34.093Z,7.50
2023-04-08T16:26:24.221Z,6.03
2023-04-08T16:29:12.661Z,7.55
2023-04-08T16:32:01.604Z,7.05
2023-04-08T16:34:50.035Z,6.23
2023-04-08T16:37:38.424Z,5.37
2023-04-08T16:40:28.403Z,6.50
2023-04-08T16:43:16.906Z,4.97
2023-04-08T16:46:12.318Z,5.67
2023-04-08T16:49:01.320Z,7.50
2023-04-08T16:51:49.856Z,8.90
2023-04-08T16:54:38.259Z,5.65
2023-04-08T16:57:28.430Z,5.45
2023-04-08T17:00:19.694Z,4.30
2023-04-08T17:03:09.546Z,6.72
2023-04-08T17:06:07.455Z,5.68
2023-04-08T17:08:56.239Z,5.57
2023-04-08T17:11:44.992Z,8.18
2023-04-08T17:14:34.918Z,8.23
2023-04-08T17:17:23.430Z,8.68
2023-04-08T17:20:12.915Z,6.10
2023-04-08T17:23:01.563Z,6.88
2023-04-08T17:25:50.063Z,4.88
2023-04-08T17:28:38.603Z,5.40
2023-04-08T17:31:28.653Z,4.63
2023-04-08T17:34:17.179Z,4.32
2023-04-08T17:37:06.308Z,5.47
2023-04-08T17:39:55.134Z,6.13
2023-04-08T17:42:43.824Z,6.28
2023-04-08T17:45:32.553Z,6.73
2023-04-08T17:48:22.726Z,5.72
2023-04-08T17:51:11.926Z,5.13
2023-04-08T17:54:00.684Z,5.80
2023-04-08T17:56:49.701Z,5.13
2023-04-08T17:59:38.472Z,5.65
2023-04-08T18:02:29.022Z,6.27
2023-04-08T18:05:19.352Z,6.80
2023-04-08T18:08:08.141Z,8.82
2023-04-08T18:10:56.832Z,7.53
2023-04-08T18:13:46.069Z,7.25
2023-04-08T18:16:34.847Z,7.38
2023-04-08T18:19:24.645Z,7.80
2023-04-08T18:22:14.805Z,6.00
2023-04-08T18:25:03.634Z,5.72
2023-04-08T18:27:52.404Z,6.68
2023-04-08T18:30:42.698Z,6.28
2023-04-08T18:33:31.486Z,5.75
2023-04-08T18:36:20.272Z,8.98
2023-04-08T18:39:10.468Z,9.20
2023-04-08T18:41:58.919Z,9.27
2023-04-08T18:44:47.450Z,4.63
2023-04-08T18:47:36.440Z,8.48
2023-04-08T18:50:25.161Z,5.47
2023-04-08T18:53:14.037Z,4.37
2023-04-08T18:56:04.769Z,4.50
2023-04-08T18:58:54.739Z,3.97
2023-04-08T19:01:43.983Z,4.15
2023-04-08T19:04:33.518Z,3.87
2023-04-08T19:07:22.138Z,3.30
2023-04-08T19:10:11.097Z,3.95
2023-04-08T19:13:00.978Z,3.35
2023-04-08T19:15:49.900Z,3.77
2023-04-08T19:18:38.470Z,4.85
2023-04-08T19:21:27.296Z,3.27
2023-04-08T19:24:15.850Z,4.85
2023-04-08T19:27:04.437Z,4.77
2023-04-08T19:29:54.224Z,6.25
2023-04-08T19:32:43.201Z,4.57
2023-04-08T19:35:31.833Z,2.85
2023-04-08T19:38:20.285Z,4.00
2023-04-08T19:41:08.790Z,6.40
2023-04-08T19:43:57.235Z,3.95
2023-04-08T19:46:47.107Z,3.08
2023-04-08T19:49:35.728Z,4.03
2023-04-08T19:52:24.138Z,4.15
2023-04-08T19:55:12.712Z,4.32
2023-04-08T19:58:01.621Z,5.47
2023-04-08T20:00:50.098Z,4.90
2023-04-08T20:03:40.339Z,4.15
2023-04-08T20:06:28.877Z,3.45
2023-04-08T20:09:17.273Z,3.95
2023-04-08T20:12:06.265Z,5.10
2023-04-08T20:14:54.763Z,4.70
2023-04-08T20:17:43.288Z,4.75
2023-04-08T20:20:33.128Z,4.70
2023-04-08T20:23:21.890Z,4.20
2023-04-08T20:26:10.320Z,3.88
2023-04-08T20:28:59.154Z,5.05
2023-04-08T20:31:47.853Z,5.43
2023-04-08T20:34:36.329Z,4.77
2023-04-08T20:37:26.345Z,4.80
2023-04-08T20:40:16.966Z,5.00
2023-04-08T20:43:06.551Z,5.15
2023-04-08T20:45:54.975Z,3.35
2023-04-08T20:48:43.426Z,4.00
2023-04-08T20:51:32.585Z,4.32
2023-04-08T20:54:22.633Z,3.80
2023-04-08T20:57:11.088Z,6.43
2023-04-08T20:59:59.634Z,4.90
2023-04-08T21:02:48.491Z,4.05
2023-04-08T21:05:38.769Z,4.80
2023-04-08T21:08:27.308Z,3.53
2023-04-08T21:11:17.399Z,3.50
2023-04-08T21:14:05.834Z,3.35
2023-04-08T21:16:54.203Z,5.45
2023-04-08T21:19:42.755Z,3.80
2023-04-08T21:22:32.280Z,4.38
2023-04-08T21:25:20.820Z,4.32
2023-04-08T21:28:10.686Z,3.42
2023-04-08T21:31:09.005Z,4.30
2023-04-08T21:33:57.550Z,3.40
2023-04-08T21:36:46.071Z,3.78
2023-04-08T21:39:34.478Z,4.07
2023-04-08T21:42:25.102Z,5.05
2023-04-08T21:45:15.428Z,4.47
2023-04-08T21:48:03.835Z,3.92
2023-04-08T21:50:53.142Z,3.53
2023-04-08T21:53:41.540Z,3.80
2023-04-08T21:56:30.031Z,6.43
2023-04-08T21:59:19.203Z,5.15
2023-04-08T22:02:11.253Z,5.40
2023-04-08T22:05:00.235Z,6.60
2023-04-08T22:07:48.792Z,4.22
2023-04-08T22:10:37.251Z,5.18
2023-04-08T22:13:25.929Z,4.97
2023-04-08T22:16:14.601Z,4.97
2023-04-08T22:19:04.406Z,5.50
2023-04-08T22:21:52.793Z,5.60
2023-04-08T22:24:41.453Z,5.00
2023-04-08T22:27:29.982Z,5.18
2023-04-08T22:30:18.488Z,4.85
2023-04-08T22:33:06.945Z,4.70
2023-04-08T22:35:58.107Z,4.88
2023-04-08T22:38:47.423Z,5.93
2023-04-08T22:41:36.034Z,4.88
2023-04-08T22:44:24.550Z,4.60
2023-04-08T22:47:13.296Z,4.40
2023-04-08T22:50:01.758Z,5.68
2023-04-08T22:52:51.612Z,4.87
2023-04-08T22:55:40.116Z,7.15
2023-04-08T22:58:28.556Z,5.83
2023-04-08T23:01:20.852Z,5.63
2023-04-08T23:04:09.472Z,5.75
2023-04-08T23:06:58.094Z,4.82
2023-04-08T23:09:47.864Z,5.35
2023-04-08T23:12:36.276Z,5.63
2023-04-08T23:15:24.853Z,6.97
2023-04-08T23:18:13.298Z,6.93
2023-04-08T23:21:01.686Z,6.10
2023-04-08T23:23:50.149Z,6.00
2023-04-08T23:26:39.932Z,5.72
2023-04-08T23:29:28.349Z,6.63
2023-04-08T23:32:16.808Z,5.50
2023-04-08T23:35:06.311Z,5.43
2023-04-08T23:37:54.812Z,6.28
2023-04-08T23:40:43.329Z,6.27
2023-04-08T23:43:33.188Z,5.72
2023-04-08T23:46:21.709Z,6.37
2023-04-08T23:49:10.194Z,5.57
2023-04-08T23:51:58.643Z,6.07
2023-04-08T23:54:51.129Z,8.15
2023-04-08T23:57:42.294Z,6.82
